createdAt,value
2018-01-12T00:01:41.896Z,22.93
2018-01-12T00:04:08.242Z,19.90
2018-01-12T00:06:34.457Z,22.43
2018-01-12T00:09:00.900Z,20.00
2018-01-12T00:11:27.114Z,21.53
2018-01-12T00:13:53.382Z,23.10
2018-01-12T00:16:19.562Z,21.43
2018-01-12T00:18:45.813Z,17.77
2018-01-12T00:21:12.085Z,21.60
2018-01-12T00:23:38.267Z,21.33
2018-01-12T00:26:04.467Z,22.57
2018-01-12T00:28:31.434Z,24.70
2018-01-12T00:30:57.634Z,20.93
2018-01-12T00:33:24.560Z,21.97
2018-01-12T00:35:50.762Z,22.13
2018-01-12T00:38:16.937Z,24.10
2018-01-12T00:40:44.481Z,23.93
2018-01-12T00:43:10.670Z,23.13
2018-01-12T00:45:36.909Z,23.40
2018-01-12T00:48:03.178Z,22.10
2018-01-12T00:50:30.145Z,25.97
2018-01-12T00:53:18.204Z,22.37
2018-01-12T00:55:44.416Z,29.93
2018-01-12T00:58:10.629Z,25.43
2018-01-12T01:00:37.572Z,25.77
2018-01-12T01:03:04.463Z,22.90
2018-01-12T01:05:30.717Z,23.37
2018-01-12T01:07:57.787Z,23.13
2018-01-12T01:10:24.736Z,21.63
2018-01-12T01:12:51.646Z,20.27
2018-01-12T01:15:17.827Z,19.30
2018-01-12T01:17:43.998Z,13.50
2018-01-12T01:20:10.219Z,13.97
2018-01-12T01:22:36.386Z,13.80
2018-01-12T01:25:02.599Z,15.90
2018-01-12T01:27:28.785Z,14.37
2018-01-12T01:29:55.022Z,13.03
2018-01-12T01:32:21.245Z,14.23
2018-01-12T01:34:47.445Z,11.07
2018-01-12T01:37:14.458Z,12.00
2018-01-12T01:39:40.797Z,12.50
2018-01-12T01:42:07.041Z,11.90
2018-01-12T01:44:33.274Z,12.40
2018-01-12T01:47:00.186Z,14.13
2018-01-12T01:49:26.449Z,15.40
2018-01-12T01:51:52.695Z,14.50
2018-01-12T01:54:19.528Z,15.30
2018-01-12T01:56:46.436Z,18.03
2018-01-12T01:59:12.586Z,13.63
2018-01-12T02:01:38.842Z,13.53
2018-01-12T02:04:05.072Z,15.20
2018-01-12T02:06:31.322Z,15.67
2018-01-12T02:08:57.505Z,17.90
2018-01-12T02:11:24.554Z,23.23
2018-01-12T02:13:51.505Z,18.83
2018-01-12T02:16:18.472Z,15.90
2018-01-12T02:18:44.634Z,18.17
2018-01-12T02:21:10.860Z,17.53
2018-01-12T02:23:37.032Z,15.93
2018-01-12T02:26:03.168Z,16.13
2018-01-12T02:28:30.080Z,18.47
2018-01-12T02:30:56.287Z,19.47
2018-01-12T02:33:22.488Z,16.93
2018-01-12T02:35:48.716Z,17.40
2018-01-12T02:38:14.936Z,16.87
2018-01-12T02:40:41.835Z,16.10
2018-01-12T02:43:08.062Z,21.03
2018-01-12T02:45:34.193Z,15.93
2018-01-12T02:48:00.345Z,18.97
2018-01-12T02:50:26.558Z,18.77
2018-01-12T02:52:52.757Z,18.47
2018-01-12T02:55:18.964Z,18.47
2018-01-12T02:57:45.206Z,15.83
2018-01-12T03:00:11.416Z,21.03
2018-01-12T03:02:38.457Z,17.40
2018-01-12T03:05:05.395Z,17.03
2018-01-12T03:07:32.444Z,19.27
2018-01-12T03:09:59.462Z,20.53
2018-01-12T03:12:25.648Z,19.60
2018-01-12T03:14:51.868Z,21.20
2018-01-12T03:17:19.023Z,28.30
2018-01-12T03:19:45.186Z,26.77
2018-01-12T03:22:11.426Z,25.40
2018-01-12T03:24:37.658Z,26.77
2018-01-12T03:27:03.844Z,26.50
2018-01-12T03:29:30.016Z,25.73
2018-01-12T03:31:56.182Z,24.80
2018-01-12T03:34:23.202Z,26.67
2018-01-12T03:36:49.391Z,27.00
2018-01-12T03:39:15.539Z,28.77
2018-01-12T03:41:41.745Z,31.30
2018-01-12T03:44:07.912Z,29.40
2018-01-12T03:46:34.137Z,31.17
2018-01-12T03:49:00.274Z,28.37
2018-01-12T03:51:26.447Z,31.47
2018-01-12T03:53:52.661Z,24.43
2018-01-12T03:56:18.873Z,27.90
2018-01-12T03:58:45.814Z,27.40
2018-01-12T04:01:12.739Z,31.70
2018-01-12T04:03:38.924Z,28.43
2018-01-12T04:06:05.093Z,25.83
2018-01-12T04:08:31.318Z,28.27
2018-01-12T04:10:57.580Z,34.30
2018-01-12T04:13:24.546Z,28.43
2018-01-12T04:15:50.841Z,31.10
2018-01-12T04:18:17.729Z,32.47
2018-01-12T04:20:43.938Z,34.00
2018-01-12T04:23:10.122Z,41.13
2018-01-12T04:25:36.365Z,27.50
2018-01-12T04:28:02.534Z,28.63
2018-01-12T04:30:28.734Z,30.80
2018-01-12T04:32:55.661Z,35.10
2018-01-12T04:35:22.644Z,28.83
2018-01-12T04:37:49.695Z,33.97
2018-01-12T04:40:15.941Z,34.37
2018-01-12T04:42:42.146Z,33.20
2018-01-12T04:45:09.082Z,30.70
2018-01-12T04:47:36.027Z,34.67
2018-01-12T04:50:03.007Z,32.37
2018-01-12T04:52:29.220Z,30.50
2018-01-12T04:54:55.395Z,31.67
2018-01-12T04:57:21.618Z,30.30
2018-01-12T04:59:47.885Z,33.10
2018-01-12T05:02:14.882Z,33.20
2018-01-12T05:04:41.025Z,35.07
2018-01-12T05:07:07.238Z,34.70
2018-01-12T05:09:33.444Z,33.83
2018-01-12T05:11:59.688Z,33.10
2018-01-12T05:14:26.078Z,31.50
2018-01-12T05:16:53.131Z,32.77
2018-01-12T05:19:20.100Z,26.83
2018-01-12T05:21:46.355Z,28.20
2018-01-12T05:24:12.694Z,32.40
2018-01-12T05:26:38.877Z,31.30
2018-01-12T05:29:05.810Z,31.00
2018-01-12T05:31:32.753Z,29.00
2018-01-12T05:33:59.707Z,25.73
2018-01-12T05:36:26.710Z,30.27
2018-01-12T05:38:52.935Z,25.00
2018-01-12T05:41:19.221Z,27.57
2018-01-12T05:43:45.420Z,31.53
2018-01-12T05:46:11.642Z,30.33
2018-01-12T05:48:38.088Z,25.00
2018-01-12T05:51:04.345Z,34.37
2018-01-12T05:53:30.544Z,26.70
2018-01-12T05:55:56.776Z,24.40
2018-01-12T05:58:23.069Z,23.33
2018-01-12T06:01:10.276Z,21.73
2018-01-12T06:03:48.774Z,24.80
2018-01-12T06:06:16.825Z,25.50
2018-01-12T06:08:43.805Z,26.00
2018-01-12T06:11:09.987Z,26.53
2018-01-12T06:13:36.166Z,23.03
2018-01-12T06:16:02.369Z,24.63
2018-01-12T06:18:29.307Z,23.47
2018-01-12T06:20:55.491Z,25.90
2018-01-12T06:23:21.740Z,24.13
2018-01-12T06:25:47.922Z,27.73
2018-01-12T06:28:14.128Z,25.20
2018-01-12T06:30:41.061Z,27.40
2018-01-12T06:33:08.005Z,24.00
2018-01-12T06:35:34.919Z,24.47
2018-01-12T06:38:01.094Z,17.67
2018-01-12T06:40:28.053Z,25.00
2018-01-12T06:42:54.242Z,18.47
2018-01-12T06:45:20.427Z,22.87
2018-01-12T06:47:46.603Z,20.80
2018-01-12T06:50:12.831Z,26.47
2018-01-12T06:52:39.031Z,22.57
2018-01-12T06:55:05.197Z,22.60
2018-01-12T06:57:32.114Z,24.10
2018-01-12T06:59:58.318Z,21.40
2018-01-12T07:02:24.513Z,21.23
2018-01-12T07:04:51.425Z,23.93
2018-01-12T07:07:17.582Z,21.40
2018-01-12T07:09:44.493Z,22.67
2018-01-12T07:12:10.698Z,25.97
2018-01-12T07:14:36.936Z,23.53
2018-01-12T07:17:03.189Z,27.57
2018-01-12T07:19:29.412Z,28.07
2018-01-12T07:22:08.026Z,24.37
2018-01-12T07:24:34.695Z,30.33
2018-01-12T07:27:16.539Z,28.03
2018-01-12T07:29:42.811Z,31.60
2018-01-12T07:32:09.712Z,31.50
2018-01-12T07:34:35.946Z,31.73
2018-01-12T07:37:02.152Z,29.93
2018-01-12T07:39:28.787Z,30.40
2018-01-12T07:41:54.977Z,29.10
2018-01-12T07:44:21.203Z,30.70
2018-01-12T07:46:47.551Z,35.27
2018-01-12T07:49:13.817Z,31.07
2018-01-12T07:51:39.999Z,31.23
2018-01-12T07:54:06.934Z,35.30
2018-01-12T07:56:33.090Z,31.67
2018-01-12T07:59:00.004Z,32.57
2018-01-12T08:01:32.628Z,29.00
2018-01-12T08:03:58.751Z,33.23
2018-01-12T08:06:25.709Z,39.50
2018-01-12T08:08:52.983Z,31.33
2018-01-12T08:11:19.165Z,31.03
2018-01-12T08:13:46.105Z,35.60
2018-01-12T08:16:13.027Z,31.03
2018-01-12T08:18:39.574Z,30.50
2018-01-12T08:21:05.741Z,33.10
2018-01-12T08:23:31.964Z,31.40
2018-01-12T08:25:58.130Z,33.37
2018-01-12T08:28:24.314Z,32.47
2018-01-12T08:30:50.568Z,29.87
2018-01-12T08:33:16.763Z,32.70
2018-01-12T08:35:43.722Z,33.53
2018-01-12T08:38:09.950Z,29.90
2018-01-12T08:40:52.393Z,32.67
2018-01-12T08:43:18.606Z,33.33
2018-01-12T08:45:45.158Z,30.10
2018-01-12T08:48:11.392Z,28.80
2018-01-12T08:50:37.643Z,26.00
2018-01-12T08:53:04.017Z,30.60
2018-01-12T08:55:30.236Z,30.97
2018-01-12T08:57:57.239Z,29.87
2018-01-12T09:00:23.450Z,33.00
2018-01-12T09:02:52.834Z,30.17
2018-01-12T09:05:19.003Z,29.90
2018-01-12T09:07:45.399Z,31.60
2018-01-12T09:10:11.754Z,33.90
2018-01-12T09:12:37.922Z,32.63
2018-01-12T09:20:57.488Z,35.63
2018-01-12T09:23:30.032Z,36.50
2018-01-12T09:25:56.266Z,35.37
2018-01-12T09:28:22.493Z,35.67
2018-01-12T09:30:48.649Z,32.20
2018-01-12T09:33:15.081Z,35.23
2018-01-12T09:35:41.278Z,38.00
2018-01-12T09:38:20.189Z,34.80
2018-01-12T09:40:47.170Z,36.27
2018-01-12T09:43:13.391Z,40.67
2018-01-12T09:45:39.579Z,38.13
2018-01-12T09:48:17.954Z,38.03
2018-01-12T09:50:44.655Z,46.30
2018-01-12T09:53:10.891Z,40.27
2018-01-12T09:55:37.165Z,41.30
2018-01-12T09:58:03.351Z,32.97
2018-01-12T10:00:41.925Z,41.47
2018-01-12T10:03:08.207Z,36.27
2018-01-12T10:05:34.760Z,44.97
2018-01-12T10:08:04.026Z,43.43
2018-01-12T10:10:30.942Z,38.00
2018-01-12T10:12:57.140Z,38.93
2018-01-12T10:15:23.331Z,38.50
2018-01-12T10:17:50.369Z,37.67
2018-01-12T10:20:17.374Z,37.90
2018-01-12T10:22:44.363Z,40.87
2018-01-12T10:25:11.295Z,39.03
2018-01-12T10:27:37.447Z,36.90
2018-01-12T10:30:16.768Z,53.80
2018-01-12T10:32:43.915Z,34.40
2018-01-12T10:35:18.031Z,35.57
2018-01-12T10:37:44.990Z,36.23
2018-01-12T10:40:19.841Z,33.60
2018-01-12T10:42:46.073Z,41.47
2018-01-12T10:45:12.285Z,36.17
2018-01-12T10:47:47.937Z,41.53
2018-01-12T10:50:17.933Z,39.37
2018-01-12T10:52:49.980Z,40.33
2018-01-12T10:55:16.232Z,39.37
2018-01-12T10:57:43.232Z,41.60
2018-01-12T11:00:22.557Z,43.43
2018-01-12T11:02:49.273Z,42.17
2018-01-12T11:05:15.506Z,41.13
2018-01-12T11:07:41.679Z,40.17
2018-01-12T11:10:08.001Z,40.80
2018-01-12T11:12:34.266Z,40.57
2018-01-12T11:15:00.466Z,44.57
2018-01-12T11:17:26.647Z,41.60
2018-01-12T11:19:52.968Z,23.23
2018-01-12T11:22:19.257Z,13.37
2018-01-12T11:24:45.537Z,16.07
2018-01-12T11:27:11.852Z,19.23
2018-01-12T11:33:08.845Z,39.50
2018-01-12T11:35:35.111Z,39.03
2018-01-12T11:38:01.341Z,35.17
2018-01-12T11:40:27.572Z,40.13
2018-01-12T11:42:54.491Z,48.47
2018-01-12T11:45:20.794Z,41.53
2018-01-12T11:47:47.838Z,42.17
2018-01-12T11:50:14.819Z,47.93
2018-01-12T11:52:41.012Z,44.40
2018-01-12T11:55:07.982Z,45.20
2018-01-12T11:57:34.174Z,41.57
2018-01-12T12:00:01.346Z,39.40
2018-01-12T12:02:28.273Z,42.27
2018-01-12T12:04:56.285Z,42.30
2018-01-12T12:07:22.453Z,41.43
2018-01-12T12:09:49.831Z,44.03
2018-01-12T12:12:16.952Z,45.87
2018-01-12T12:14:43.296Z,46.10
2018-01-12T12:17:09.521Z,50.43
2018-01-12T12:19:35.957Z,51.40
2018-01-12T12:22:02.552Z,42.93
2018-01-12T12:24:28.745Z,50.00
2018-01-12T12:26:55.725Z,41.43
2018-01-12T12:29:22.112Z,47.50
2018-01-12T12:31:48.313Z,19.27
2018-01-12T12:34:14.532Z,37.43
2018-01-12T12:36:40.768Z,52.50
2018-01-12T12:39:06.924Z,46.77
2018-01-12T12:41:33.967Z,42.80
2018-01-12T12:44:01.852Z,43.47
2018-01-12T12:46:28.796Z,40.43
2018-01-12T12:48:55.196Z,44.90
2018-01-12T12:51:21.405Z,44.00
2018-01-12T12:53:47.640Z,45.57
2018-01-12T12:56:14.760Z,40.53
2018-01-12T12:58:42.007Z,38.40
2018-01-12T13:01:09.390Z,39.03
2018-01-12T13:03:35.598Z,42.00
2018-01-12T13:06:02.813Z,38.30
2018-01-12T13:08:29.131Z,34.90
2018-01-12T13:10:55.983Z,41.00
2018-01-12T13:13:23.796Z,41.03
2018-01-12T13:15:50.422Z,41.07
2018-01-12T13:18:17.981Z,44.97
2018-01-12T13:20:44.202Z,40.73
2018-01-12T13:23:11.208Z,36.03
2018-01-12T13:25:38.329Z,47.20
2018-01-12T13:28:04.635Z,45.93
2018-01-12T13:30:31.662Z,47.47
2018-01-12T13:42:43.053Z,46.23
2018-01-12T13:45:14.424Z,42.13
2018-01-12T13:47:40.634Z,36.97
2018-01-12T13:50:06.921Z,46.23
2018-01-12T13:52:33.144Z,45.97
2018-01-12T13:54:59.481Z,49.93
2018-01-12T13:57:25.686Z,40.83
2018-01-12T13:59:51.981Z,40.57
2018-01-12T14:02:18.242Z,42.90
2018-01-12T14:04:44.508Z,35.67
2018-01-12T14:07:10.724Z,37.70
2018-01-12T14:09:36.973Z,36.03
2018-01-12T14:12:03.938Z,38.50
2018-01-12T14:14:30.207Z,34.47
2018-01-12T14:16:56.603Z,30.93
2018-01-12T14:19:22.819Z,32.33
2018-01-12T14:21:49.815Z,31.83
2018-01-12T14:24:16.058Z,32.40
2018-01-12T14:26:43.095Z,33.43
2018-01-12T14:29:09.276Z,34.33
2018-01-12T14:31:36.236Z,32.33
2018-01-12T14:34:02.556Z,30.37
2018-01-12T14:36:28.783Z,31.47
2018-01-12T14:38:55.789Z,36.37
2018-01-12T14:41:22.091Z,29.60
2018-01-12T14:43:48.378Z,32.63
2018-01-12T14:46:15.328Z,30.63
2018-01-12T14:48:42.330Z,31.03
2018-01-12T14:51:08.517Z,33.57
2018-01-12T14:53:36.982Z,39.80
2018-01-12T14:56:03.658Z,37.40
2018-01-12T14:58:30.782Z,39.23
2018-01-12T15:00:57.033Z,45.73
2018-01-12T15:03:23.185Z,35.93
2018-01-12T15:05:49.400Z,45.30
2018-01-12T15:08:16.723Z,42.20
2018-01-12T15:10:44.117Z,37.27
2018-01-12T15:13:10.303Z,40.17
2018-01-12T15:15:37.271Z,46.43
2018-01-12T15:18:03.512Z,41.80
2018-01-12T15:20:29.807Z,43.27
2018-01-12T15:22:56.383Z,39.20
2018-01-12T15:25:22.559Z,42.70
2018-01-12T15:27:48.731Z,47.03
2018-01-12T15:30:14.983Z,43.97
2018-01-12T15:32:41.335Z,48.30
2018-01-12T15:35:08.371Z,48.97
2018-01-12T15:37:35.028Z,49.33
2018-01-12T15:40:01.253Z,50.23
2018-01-12T15:42:27.461Z,50.73
2018-01-12T15:44:53.691Z,52.13
2018-01-12T15:47:19.910Z,53.33
2018-01-12T15:49:46.127Z,48.27
2018-01-12T15:52:12.409Z,54.23
2018-01-12T15:54:38.685Z,49.67
2018-01-12T15:57:05.284Z,52.60
2018-01-12T15:59:31.565Z,49.30
2018-01-12T16:01:57.789Z,52.80
2018-01-12T16:04:23.998Z,46.67
2018-01-12T16:06:50.331Z,52.43
2018-01-12T16:09:16.546Z,45.97
2018-01-12T16:11:43.609Z,49.20
2018-01-12T16:14:09.846Z,49.63
2018-01-12T16:16:36.028Z,47.93
2018-01-12T16:19:02.274Z,47.43
2018-01-12T16:21:29.196Z,41.70
2018-01-12T16:23:55.492Z,41.60
2018-01-12T16:26:21.708Z,49.63
2018-01-12T16:28:47.874Z,43.37
2018-01-12T16:31:14.079Z,50.13
2018-01-12T16:33:40.393Z,48.57
2018-01-12T16:36:06.593Z,43.10
2018-01-12T16:38:33.554Z,43.97
2018-01-12T16:40:59.753Z,42.13
2018-01-12T16:43:25.965Z,46.57
2018-01-12T16:45:52.172Z,53.30
2018-01-12T16:48:18.509Z,46.07
2018-01-12T16:50:44.748Z,41.40
2018-01-12T16:53:10.967Z,44.17
2018-01-12T16:55:37.184Z,41.43
2018-01-12T16:58:03.415Z,40.70
2018-01-12T17:00:29.621Z,39.90
2018-01-12T17:02:55.822Z,43.97
2018-01-12T17:05:22.934Z,43.00
2018-01-12T17:07:49.148Z,45.23
2018-01-12T17:10:15.309Z,40.07
2018-01-12T17:12:41.552Z,42.13
2018-01-12T17:15:07.748Z,39.20
2018-01-12T17:17:33.905Z,42.23
2018-01-12T17:20:00.194Z,43.20
2018-01-12T17:22:26.435Z,47.73
2018-01-12T17:24:52.672Z,42.70
2018-01-12T17:27:18.916Z,40.43
2018-01-12T17:29:45.145Z,37.20
2018-01-12T17:32:11.369Z,41.10
2018-01-12T17:34:37.559Z,43.13
2018-01-12T17:37:03.827Z,47.23
2018-01-12T17:39:30.018Z,42.50
2018-01-12T17:41:56.225Z,43.70
2018-01-12T17:44:23.178Z,45.20
2018-01-12T17:46:50.118Z,46.80
2018-01-12T17:49:17.311Z,44.40
2018-01-12T17:51:44.324Z,42.40
2018-01-12T17:54:10.612Z,41.77
2018-01-12T17:56:36.871Z,43.93
2018-01-12T17:59:03.095Z,44.10
2018-01-12T18:01:30.804Z,42.73
2018-01-12T18:03:57.040Z,39.63
2018-01-12T18:06:23.497Z,45.67
2018-01-12T18:09:04.686Z,43.93
2018-01-12T18:14:09.740Z,43.07
2018-01-12T18:16:36.999Z,47.73
2018-01-12T18:19:04.199Z,43.20
2018-01-12T18:21:31.852Z,50.60
2018-01-12T18:23:58.888Z,43.60
2018-01-12T18:26:28.010Z,43.63
2018-01-12T18:28:54.212Z,46.00
2018-01-12T18:33:55.670Z,45.90
2018-01-12T18:36:23.610Z,45.10
2018-01-12T18:38:51.226Z,54.87
2018-01-12T18:41:19.523Z,49.70
2018-01-12T18:43:45.710Z,49.40
2018-01-12T18:46:15.033Z,51.43
2018-01-12T18:48:41.388Z,48.73
2018-01-12T18:51:08.498Z,53.83
2018-01-12T18:53:39.450Z,50.10
2018-01-12T18:56:05.766Z,54.40
2018-01-12T18:58:32.585Z,51.00
2018-01-12T19:00:59.600Z,52.07
2018-01-12T19:03:25.874Z,45.07
2018-01-12T19:05:56.352Z,49.87
2018-01-12T19:08:23.704Z,49.13
2018-01-12T19:10:49.934Z,49.40
2018-01-12T19:13:17.061Z,52.17
2018-01-12T19:15:43.394Z,60.27
2018-01-12T19:18:11.829Z,53.87
2018-01-12T19:20:38.937Z,59.87
2018-01-12T19:23:07.020Z,51.50
2018-01-12T19:25:34.056Z,56.40
2018-01-12T19:28:00.362Z,51.33
2018-01-12T19:30:28.413Z,50.20
2018-01-12T19:32:55.674Z,50.93
2018-01-12T19:35:23.003Z,55.40
2018-01-12T19:37:50.029Z,57.33
2018-01-12T19:40:17.032Z,57.43
2018-01-12T19:42:45.391Z,56.67
2018-01-12T19:45:12.711Z,56.30
2018-01-12T19:47:40.004Z,51.67
2018-01-12T19:50:07.977Z,49.67
2018-01-12T19:52:35.023Z,52.00
2018-01-12T19:55:05.917Z,57.77
2018-01-12T19:57:33.068Z,57.53
2018-01-12T19:59:59.232Z,54.57
2018-01-12T20:02:26.159Z,60.40
2018-01-12T20:04:52.344Z,53.17
2018-01-12T20:07:19.406Z,54.90
2018-01-12T20:09:47.436Z,55.10
2018-01-12T20:12:13.931Z,56.33
2018-01-12T20:14:41.237Z,52.80
2018-01-12T20:17:09.094Z,54.07
2018-01-12T20:19:36.071Z,56.03
2018-01-12T20:22:02.477Z,53.07
2018-01-12T20:24:30.016Z,57.23
2018-01-12T20:26:56.993Z,61.53
2018-01-12T20:29:24.016Z,58.07
2018-01-12T20:31:50.863Z,58.50
2018-01-12T20:34:17.503Z,57.87
2018-01-12T20:36:44.263Z,53.80
2018-01-12T20:39:11.434Z,49.00
2018-01-12T20:41:37.950Z,52.20
2018-01-12T20:44:06.347Z,50.10
2018-01-12T20:46:34.508Z,58.00
2018-01-12T20:49:03.631Z,57.00
2018-01-12T20:51:30.749Z,51.83
2018-01-12T20:54:01.204Z,56.30
2018-01-12T20:56:29.270Z,49.77
2018-01-12T20:58:56.958Z,53.87
2018-01-12T21:01:23.170Z,47.97
2018-01-12T21:03:50.827Z,50.40
2018-01-12T21:06:18.903Z,49.73
2018-01-12T21:08:45.260Z,50.90
2018-01-12T21:11:12.470Z,43.67
2018-01-12T21:13:41.207Z,50.97
2018-01-12T21:16:08.435Z,42.70
2018-01-12T21:18:34.640Z,55.10
2018-01-12T21:21:07.161Z,45.90
2018-01-12T21:23:33.387Z,48.13
2018-01-12T21:26:00.403Z,54.07
2018-01-12T21:28:32.943Z,47.67
2018-01-12T21:30:59.193Z,46.00
2018-01-12T21:33:28.263Z,48.30
2018-01-12T21:35:54.543Z,45.57
2018-01-12T21:38:21.945Z,48.87
2018-01-12T21:40:54.138Z,43.30
2018-01-12T21:43:23.794Z,42.87
2018-01-12T21:45:52.671Z,49.80
2018-01-12T21:48:19.883Z,43.90
2018-01-12T21:50:47.333Z,49.37
2018-01-12T21:53:15.694Z,45.37
2018-01-12T21:55:42.151Z,46.37
2018-01-12T21:58:09.163Z,46.43
2018-01-12T22:00:37.126Z,47.57
2018-01-12T22:03:04.572Z,45.87
2018-01-12T22:05:32.495Z,47.43
2018-01-12T22:08:00.666Z,54.80
2018-01-12T22:10:26.983Z,48.10
2018-01-12T22:12:55.005Z,42.97
2018-01-12T22:15:21.599Z,48.27
2018-01-12T22:17:48.749Z,50.57
2018-01-12T22:20:17.428Z,49.97
2018-01-12T22:22:44.378Z,46.50
2018-01-12T22:25:11.981Z,49.50
2018-01-12T22:27:40.072Z,50.37
2018-01-12T22:30:06.310Z,45.33
2018-01-12T22:32:35.403Z,45.67
2018-01-12T22:35:01.678Z,46.43
2018-01-12T22:37:28.935Z,43.57
2018-01-12T22:39:56.311Z,44.00
2018-01-12T22:42:23.349Z,41.27
2018-01-12T22:44:51.896Z,48.73
2018-01-12T22:47:20.062Z,53.10
2018-01-12T22:49:46.267Z,48.13
2018-01-12T22:52:13.222Z,49.73
2018-01-12T22:54:39.440Z,47.93
2018-01-12T22:57:05.668Z,45.80
2018-01-12T22:59:31.987Z,48.63
2018-01-12T23:01:59.018Z,58.60
2018-01-12T23:04:28.646Z,49.30
2018-01-12T23:06:54.797Z,56.40
2018-01-12T23:09:21.865Z,52.07
2018-01-12T23:11:48.074Z,53.07
2018-01-12T23:14:15.498Z,50.27
2018-01-12T23:16:43.325Z,50.13
2018-01-12T23:19:09.610Z,51.00
2018-01-12T23:21:36.856Z,50.27
2018-01-12T23:24:03.762Z,57.97
2018-01-12T23:26:29.965Z,60.80
2018-01-12T23:28:58.132Z,62.83
2018-01-12T23:31:24.416Z,59.43
2018-01-12T23:33:53.791Z,62.60
2018-01-12T23:36:20.965Z,56.57
2018-01-12T23:38:48.280Z,60.03
2018-01-12T23:41:15.294Z,61.93
2018-01-12T23:43:42.213Z,60.20
2018-01-12T23:46:11.050Z,58.57
2018-01-12T23:48:38.035Z,64.77
2018-01-12T23:51:07.325Z,66.57
2018-01-12T23:53:33.562Z,61.13
2018-01-12T23:56:05.298Z,58.63
2018-01-12T23:58:32.490Z,67.13
